sensor_id;sensor_type;location;lat;lon;timestamp;P1;durP1;ratioP1;P2;durP2;ratioP2
71423;SDS011;59240;51.370;-0.486;2023-05-18T00:01:11;22.40;;;20.50;;
71423;SDS011;59240;51.370;-0.486;2023-05-18T00:03:40;37.78;;;35.65;;
71423;SDS011;59240;51.370;-0.486;2023-05-18T00:06:07;61.37;;;57.90;;
71423;SDS011;59240;51.370;-0.486;2023-05-18T00:08:35;31.48;;;29.42;;
71423;SDS011;59240;51.370;-0.486;2023-05-18T00:11:03;30.35;;;28.48;;
71423;SDS011;59240;51.370;-0.486;2023-05-18T00:13:31;37.88;;;35.53;;
71423;SDS011;59240;51.370;-0.486;2023-05-18T00:15:57;16.95;;;15.70;;
71423;SDS011;59240;51.370;-0.486;2023-05-18T00:18:24;27.97;;;26.17;;
71423;SDS011;59240;51.370;-0.486;2023-05-18T00:20:52;20.52;;;18.83;;
71423;SDS011;59240;51.370;-0.486;2023-05-18T00:23:28;33.15;;;30.23;;
71423;SDS011;59240;51.370;-0.486;2023-05-18T00:25:56;20.92;;;19.55;;
71423;SDS011;59240;51.370;-0.486;2023-05-18T00:28:24;29.33;;;27.60;;
71423;SDS011;59240;51.370;-0.486;2023-05-18T00:30:54;45.20;;;24.83;;
71423;SDS011;59240;51.370;-0.486;2023-05-18T00:33:21;44.03;;;41.35;;
71423;SDS011;59240;51.370;-0.486;2023-05-18T00:35:48;49.03;;;46.38;;
71423;SDS011;59240;51.370;-0.486;2023-05-18T00:38:15;38.60;;;36.38;;
71423;SDS011;59240;51.370;-0.486;2023-05-18T00:40:41;33.15;;;31.00;;
71423;SDS011;59240;51.370;-0.486;2023-05-18T00:43:08;30.77;;;28.90;;
71423;SDS011;59240;51.370;-0.486;2023-05-18T00:45:35;32.35;;;30.50;;
71423;SDS011;59240;51.370;-0.486;2023-05-18T00:48:02;38.75;;;36.53;;
71423;SDS011;59240;51.370;-0.486;2023-05-18T00:50:29;24.92;;;23.40;;
71423;SDS011;59240;51.370;-0.486;2023-05-18T00:52:57;36.95;;;24.20;;
71423;SDS011;59240;51.370;-0.486;2023-05-18T00:55:24;33.37;;;31.47;;
71423;SDS011;59240;51.370;-0.486;2023-05-18T00:57:53;25.00;;;23.50;;
71423;SDS011;59240;51.370;-0.486;2023-05-18T01:00:21;23.60;;;22.05;;
71423;SDS011;59240;51.370;-0.486;2023-05-18T01:02:49;16.10;;;14.98;;
71423;SDS011;59240;51.370;-0.486;2023-05-18T01:05:16;15.00;;;13.90;;
71423;SDS011;59240;51.370;-0.486;2023-05-18T01:07:43;19.00;;;17.83;;
71423;SDS011;59240;51.370;-0.486;2023-05-18T01:10:10;30.20;;;28.45;;
71423;SDS011;59240;51.370;-0.486;2023-05-18T01:12:40;27.15;;;25.52;;
71423;SDS011;59240;51.370;-0.486;2023-05-18T01:15:21;33.08;;;31.10;;
71423;SDS011;59240;51.370;-0.486;2023-05-18T01:26:22;15.23;;;14.20;;
71423;SDS011;59240;51.370;-0.486;2023-05-18T01:28:55;11.98;;;11.07;;
71423;SDS011;59240;51.370;-0.486;2023-05-18T01:31:25;16.08;;;14.90;;
71423;SDS011;59240;51.370;-0.486;2023-05-18T01:33:52;7.10;;;6.33;;
71423;SDS011;59240;51.370;-0.486;2023-05-18T01:36:19;15.57;;;14.50;;
71423;SDS011;59240;51.370;-0.486;2023-05-18T01:38:45;13.82;;;12.80;;
71423;SDS011;59240;51.370;-0.486;2023-05-18T01:41:25;10.38;;;9.48;;
71423;SDS011;59240;51.370;-0.486;2023-05-18T01:49:33;12.35;;;11.35;;
71423;SDS011;59240;51.370;-0.486;2023-05-18T01:52:05;22.65;;;21.20;;
71423;SDS011;59240;51.370;-0.486;2023-05-18T01:54:35;8.20;;;7.38;;
71423;SDS011;59240;51.370;-0.486;2023-05-18T01:57:05;13.50;;;12.70;;
71423;SDS011;59240;51.370;-0.486;2023-05-18T01:59:33;13.30;;;12.23;;
71423;SDS011;59240;51.370;-0.486;2023-05-18T02:02:00;24.33;;;22.98;;
71423;SDS011;59240;51.370;-0.486;2023-05-18T02:04:28;6.40;;;5.88;;
71423;SDS011;59240;51.370;-0.486;2023-05-18T02:06:55;21.50;;;20.20;;
71423;SDS011;59240;51.370;-0.486;2023-05-18T02:09:22;18.10;;;16.85;;
71423;SDS011;59240;51.370;-0.486;2023-05-18T02:11:48;10.23;;;9.37;;
71423;SDS011;59240;51.370;-0.486;2023-05-18T02:14:15;18.63;;;17.48;;
71423;SDS011;59240;51.370;-0.486;2023-05-18T02:16:42;13.57;;;12.55;;
71423;SDS011;59240;51.370;-0.486;2023-05-18T02:19:12;14.63;;;13.63;;
71423;SDS011;59240;51.370;-0.486;2023-05-18T02:21:40;11.05;;;10.20;;
71423;SDS011;59240;51.370;-0.486;2023-05-18T02:24:08;12.17;;;11.10;;
71423;SDS011;59240;51.370;-0.486;2023-05-18T02:26:35;12.82;;;11.38;;
71423;SDS011;59240;51.370;-0.486;2023-05-18T02:29:03;10.73;;;9.82;;
71423;SDS011;59240;51.370;-0.486;2023-05-18T02:31:31;14.65;;;13.63;;
71423;SDS011;59240;51.370;-0.486;2023-05-18T02:33:58;10.85;;;10.02;;
71423;SDS011;59240;51.370;-0.486;2023-05-18T02:36:24;11.47;;;10.63;;
71423;SDS011;59240;51.370;-0.486;2023-05-18T02:38:51;18.50;;;17.10;;
71423;SDS011;59240;51.370;-0.486;2023-05-18T02:41:18;19.00;;;17.35;;
71423;SDS011;59240;51.370;-0.486;2023-05-18T02:43:44;21.60;;;20.33;;
71423;SDS011;59240;51.370;-0.486;2023-05-18T02:46:11;17.75;;;16.52;;
71423;SDS011;59240;51.370;-0.486;2023-05-18T02:48:37;16.80;;;15.60;;
71423;SDS011;59240;51.370;-0.486;2023-05-18T02:51:04;8.77;;;7.93;;
71423;SDS011;59240;51.370;-0.486;2023-05-18T02:53:31;12.30;;;11.40;;
71423;SDS011;59240;51.370;-0.486;2023-05-18T02:55:57;20.08;;;18.67;;
71423;SDS011;59240;51.370;-0.486;2023-05-18T02:58:24;11.25;;;10.52;;
71423;SDS011;59240;51.370;-0.486;2023-05-18T03:00:51;6.33;;;5.40;;
71423;SDS011;59240;51.370;-0.486;2023-05-18T03:03:20;6.15;;;5.60;;
71423;SDS011;59240;51.370;-0.486;2023-05-18T03:05:49;11.35;;;10.48;;
71423;SDS011;59240;51.370;-0.486;2023-05-18T03:08:21;11.60;;;10.68;;
71423;SDS011;59240;51.370;-0.486;2023-05-18T03:10:52;9.15;;;7.35;;
71423;SDS011;59240;51.370;-0.486;2023-05-18T03:13:18;8.10;;;6.97;;
71423;SDS011;59240;51.370;-0.486;2023-05-18T03:15:45;12.82;;;12.00;;
71423;SDS011;59240;51.370;-0.486;2023-05-18T03:18:12;12.55;;;11.60;;
71423;SDS011;59240;51.370;-0.486;2023-05-18T03:20:38;10.65;;;8.65;;
71423;SDS011;59240;51.370;-0.486;2023-05-18T03:23:05;6.28;;;5.57;;
71423;SDS011;59240;51.370;-0.486;2023-05-18T03:25:32;8.83;;;8.13;;
71423;SDS011;59240;51.370;-0.486;2023-05-18T03:28:03;6.85;;;6.25;;
71423;SDS011;59240;51.370;-0.486;2023-05-18T03:30:33;9.15;;;8.45;;
71423;SDS011;59240;51.370;-0.486;2023-05-18T03:33:01;11.13;;;10.15;;
71423;SDS011;59240;51.370;-0.486;2023-05-18T03:35:28;12.00;;;11.10;;
71423;SDS011;59240;51.370;-0.486;2023-05-18T03:37:55;21.67;;;20.30;;
71423;SDS011;59240;51.370;-0.486;2023-05-18T03:40:22;12.75;;;11.60;;
71423;SDS011;59240;51.370;-0.486;2023-05-18T03:42:50;14.82;;;13.80;;
71423;SDS011;59240;51.370;-0.486;2023-05-18T03:45:17;6.88;;;6.28;;
71423;SDS011;59240;51.370;-0.486;2023-05-18T03:47:44;14.23;;;13.27;;
71423;SDS011;59240;51.370;-0.486;2023-05-18T03:50:11;10.17;;;9.17;;
71423;SDS011;59240;51.370;-0.486;2023-05-18T03:52:38;16.80;;;15.40;;
71423;SDS011;59240;51.370;-0.486;2023-05-18T03:55:06;9.27;;;8.45;;
71423;SDS011;59240;51.370;-0.486;2023-05-18T03:57:33;6.60;;;4.55;;
71423;SDS011;59240;51.370;-0.486;2023-05-18T04:00:00;8.10;;;7.43;;
71423;SDS011;59240;51.370;-0.486;2023-05-18T04:02:38;7.27;;;5.53;;
71423;SDS011;59240;51.370;-0.486;2023-05-18T04:05:06;6.00;;;5.45;;
71423;SDS011;59240;51.370;-0.486;2023-05-18T04:07:33;8.10;;;7.22;;
71423;SDS011;59240;51.370;-0.486;2023-05-18T04:10:09;4.50;;;4.05;;
71423;SDS011;59240;51.370;-0.486;2023-05-18T04:12:37;7.10;;;5.47;;
71423;SDS011;59240;51.370;-0.486;2023-05-18T04:15:05;8.43;;;7.73;;
71423;SDS011;59240;51.370;-0.486;2023-05-18T04:17:32;7.75;;;7.15;;
71423;SDS011;59240;51.370;-0.486;2023-05-18T04:19:59;10.85;;;10.18;;
71423;SDS011;59240;51.370;-0.486;2023-05-18T04:22:27;5.50;;;4.97;;
71423;SDS011;59240;51.370;-0.486;2023-05-18T04:24:56;7.88;;;7.18;;
71423;SDS011;59240;51.370;-0.486;2023-05-18T04:27:23;11.30;;;10.27;;
71423;SDS011;59240;51.370;-0.486;2023-05-18T04:29:50;10.82;;;9.95;;
71423;SDS011;59240;51.370;-0.486;2023-05-18T04:32:17;7.50;;;6.68;;
71423;SDS011;59240;51.370;-0.486;2023-05-18T04:34:44;8.90;;;8.05;;
71423;SDS011;59240;51.370;-0.486;2023-05-18T04:37:14;11.50;;;10.70;;
71423;SDS011;59240;51.370;-0.486;2023-05-18T04:39:43;10.77;;;9.97;;
71423;SDS011;59240;51.370;-0.486;2023-05-18T04:42:09;7.88;;;7.15;;
71423;SDS011;59240;51.370;-0.486;2023-05-18T04:44:39;5.93;;;5.32;;
71423;SDS011;59240;51.370;-0.486;2023-05-18T04:47:05;5.93;;;5.32;;
71423;SDS011;59240;51.370;-0.486;2023-05-18T04:49:33;6.45;;;5.85;;
71423;SDS011;59240;51.370;-0.486;2023-05-18T04:52:00;8.17;;;7.20;;
71423;SDS011;59240;51.370;-0.486;2023-05-18T04:54:27;12.68;;;10.88;;
71423;SDS011;59240;51.370;-0.486;2023-05-18T04:56:58;14.68;;;13.65;;
71423;SDS011;59240;51.370;-0.486;2023-05-18T04:59:24;8.73;;;6.30;;
71423;SDS011;59240;51.370;-0.486;2023-05-18T05:01:51;41.60;;;39.38;;
71423;SDS011;59240;51.370;-0.486;2023-05-18T05:04:19;44.03;;;41.77;;
71423;SDS011;59240;51.370;-0.486;2023-05-18T05:06:46;10.60;;;9.55;;
71423;SDS011;59240;51.370;-0.486;2023-05-18T05:09:13;10.95;;;9.90;;
71423;SDS011;59240;51.370;-0.486;2023-05-18T05:11:40;17.27;;;9.13;;
71423;SDS011;59240;51.370;-0.486;2023-05-18T05:14:07;13.27;;;12.23;;
71423;SDS011;59240;51.370;-0.486;2023-05-18T05:16:34;7.70;;;7.03;;
71423;SDS011;59240;51.370;-0.486;2023-05-18T05:19:01;10.63;;;9.82;;
71423;SDS011;59240;51.370;-0.486;2023-05-18T05:21:27;6.20;;;4.65;;
71423;SDS011;59240;51.370;-0.486;2023-05-18T05:23:54;13.77;;;12.77;;
71423;SDS011;59240;51.370;-0.486;2023-05-18T05:26:21;5.97;;;5.43;;
71423;SDS011;59240;51.370;-0.486;2023-05-18T05:28:47;12.53;;;11.60;;
71423;SDS011;59240;51.370;-0.486;2023-05-18T05:31:14;7.03;;;6.38;;
71423;SDS011;59240;51.370;-0.486;2023-05-18T05:33:40;14.95;;;13.93;;
71423;SDS011;59240;51.370;-0.486;2023-05-18T05:36:07;10.77;;;9.70;;
71423;SDS011;59240;51.370;-0.486;2023-05-18T05:38:34;12.73;;;11.85;;
71423;SDS011;59240;51.370;-0.486;2023-05-18T05:41:01;8.10;;;7.40;;
71423;SDS011;59240;51.370;-0.486;2023-05-18T05:43:28;7.88;;;7.15;;
71423;SDS011;59240;51.370;-0.486;2023-05-18T05:45:54;26.27;;;24.77;;
71423;SDS011;59240;51.370;-0.486;2023-05-18T05:48:21;20.38;;;19.02;;
71423;SDS011;59240;51.370;-0.486;2023-05-18T05:50:47;19.77;;;18.50;;
71423;SDS011;59240;51.370;-0.486;2023-05-18T05:53:14;13.40;;;12.47;;
71423;SDS011;59240;51.370;-0.486;2023-05-18T05:55:45;13.82;;;12.43;;
71423;SDS011;59240;51.370;-0.486;2023-05-18T05:58:11;30.40;;;28.58;;
71423;SDS011;59240;51.370;-0.486;2023-05-18T06:00:38;28.13;;;26.42;;
71423;SDS011;59240;51.370;-0.486;2023-05-18T06:03:05;42.35;;;39.95;;
71423;SDS011;59240;51.370;-0.486;2023-05-18T06:05:31;33.00;;;16.40;;
71423;SDS011;59240;51.370;-0.486;2023-05-18T06:07:58;35.67;;;33.58;;
71423;SDS011;59240;51.370;-0.486;2023-05-18T06:10:25;41.30;;;38.83;;
71423;SDS011;59240;51.370;-0.486;2023-05-18T06:12:51;46.92;;;44.38;;
71423;SDS011;59240;51.370;-0.486;2023-05-18T06:15:18;79.10;;;75.22;;
71423;SDS011;59240;51.370;-0.486;2023-05-18T06:17:45;51.40;;;48.70;;
71423;SDS011;59240;51.370;-0.486;2023-05-18T06:20:12;59.63;;;55.92;;
71423;SDS011;59240;51.370;-0.486;2023-05-18T06:22:39;99.05;;;90.95;;
71423;SDS011;59240;51.370;-0.486;2023-05-18T06:25:06;80.82;;;76.30;;
71423;SDS011;59240;51.370;-0.486;2023-05-18T06:27:33;86.72;;;82.00;;
71423;SDS011;59240;51.370;-0.486;2023-05-18T06:30:00;80.00;;;75.30;;
71423;SDS011;59240;51.370;-0.486;2023-05-18T06:32:26;122.57;;;116.70;;
71423;SDS011;59240;51.370;-0.486;2023-05-18T06:34:53;79.85;;;75.72;;
71423;SDS011;59240;51.370;-0.486;2023-05-18T06:37:20;103.68;;;98.00;;
71423;SDS011;59240;51.370;-0.486;2023-05-18T06:39:46;96.03;;;90.80;;
71423;SDS011;59240;51.370;-0.486;2023-05-18T06:42:13;95.47;;;89.50;;
71423;SDS011;59240;51.370;-0.486;2023-05-18T06:44:39;129.57;;;122.18;;
71423;SDS011;59240;51.370;-0.486;2023-05-18T06:47:06;171.88;;;162.48;;
71423;SDS011;59240;51.370;-0.486;2023-05-18T06:49:33;127.40;;;120.90;;
71423;SDS011;59240;51.370;-0.486;2023-05-18T06:51:59;173.15;;;163.90;;
71423;SDS011;59240;51.370;-0.486;2023-05-18T06:54:26;169.17;;;159.63;;
71423;SDS011;59240;51.370;-0.486;2023-05-18T06:56:54;190.18;;;180.43;;
71423;SDS011;59240;51.370;-0.486;2023-05-18T06:59:21;186.38;;;176.70;;
71423;SDS011;59240;51.370;-0.486;2023-05-18T07:01:48;172.88;;;161.50;;
71423;SDS011;59240;51.370;-0.486;2023-05-18T07:04:15;164.20;;;154.95;;
71423;SDS011;59240;51.370;-0.486;2023-05-18T07:06:43;217.33;;;205.20;;
71423;SDS011;59240;51.370;-0.486;2023-05-18T07:09:09;199.90;;;188.40;;
71423;SDS011;59240;51.370;-0.486;2023-05-18T07:11:36;232.38;;;219.05;;
71423;SDS011;59240;51.370;-0.486;2023-05-18T07:14:02;281.15;;;264.00;;
71423;SDS011;59240;51.370;-0.486;2023-05-18T07:16:29;204.40;;;192.20;;
71423;SDS011;59240;51.370;-0.486;2023-05-18T07:18:56;259.93;;;245.43;;
71423;SDS011;59240;51.370;-0.486;2023-05-18T07:21:24;137.52;;;128.82;;
71423;SDS011;59240;51.370;-0.486;2023-05-18T07:23:51;271.30;;;255.75;;
71423;SDS011;59240;51.370;-0.486;2023-05-18T07:26:18;268.88;;;253.70;;
71423;SDS011;59240;51.370;-0.486;2023-05-18T07:28:45;278.23;;;262.23;;
71423;SDS011;59240;51.370;-0.486;2023-05-18T07:31:13;260.03;;;243.97;;
71423;SDS011;59240;51.370;-0.486;2023-05-18T07:33:43;286.67;;;270.00;;
71423;SDS011;59240;51.370;-0.486;2023-05-18T07:36:09;280.95;;;264.05;;
71423;SDS011;59240;51.370;-0.486;2023-05-18T07:38:36;236.80;;;223.20;;
71423;SDS011;59240;51.370;-0.486;2023-05-18T07:41:03;265.17;;;247.88;;
71423;SDS011;59240;51.370;-0.486;2023-05-18T07:43:29;257.37;;;241.60;;
71423;SDS011;59240;51.370;-0.486;2023-05-18T07:45:56;324.08;;;304.27;;
71423;SDS011;59240;51.370;-0.486;2023-05-18T07:48:23;293.52;;;274.70;;
71423;SDS011;59240;51.370;-0.486;2023-05-18T07:50:49;265.77;;;249.88;;
71423;SDS011;59240;51.370;-0.486;2023-05-18T07:53:16;216.32;;;202.77;;
71423;SDS011;59240;51.370;-0.486;2023-05-18T07:55:43;346.13;;;326.80;;
71423;SDS011;59240;51.370;-0.486;2023-05-18T07:58:10;308.88;;;290.92;;
71423;SDS011;59240;51.370;-0.486;2023-05-18T08:00:38;296.35;;;276.85;;
71423;SDS011;59240;51.370;-0.486;2023-05-18T08:03:05;281.92;;;264.15;;
71423;SDS011;59240;51.370;-0.486;2023-05-18T08:05:32;263.58;;;247.77;;
71423;SDS011;59240;51.370;-0.486;2023-05-18T08:07:59;271.17;;;252.77;;
71423;SDS011;59240;51.370;-0.486;2023-05-18T08:10:25;214.40;;;198.48;;
71423;SDS011;59240;51.370;-0.486;2023-05-18T08:12:52;144.18;;;134.27;;
71423;SDS011;59240;51.370;-0.486;2023-05-18T08:15:19;239.38;;;223.95;;
71423;SDS011;59240;51.370;-0.486;2023-05-18T08:17:46;178.15;;;166.65;;
71423;SDS011;59240;51.370;-0.486;2023-05-18T08:20:12;153.77;;;143.53;;
71423;SDS011;59240;51.370;-0.486;2023-05-18T08:22:39;153.43;;;141.63;;
71423;SDS011;59240;51.370;-0.486;2023-05-18T08:25:06;135.88;;;126.00;;
71423;SDS011;59240;51.370;-0.486;2023-05-18T08:27:35;180.00;;;166.75;;
71423;SDS011;59240;51.370;-0.486;2023-05-18T08:30:02;90.38;;;83.93;;
71423;SDS011;59240;51.370;-0.486;2023-05-18T08:32:28;47.20;;;43.43;;
71423;SDS011;59240;51.370;-0.486;2023-05-18T08:34:55;98.68;;;89.03;;
71423;SDS011;59240;51.370;-0.486;2023-05-18T08:37:22;55.50;;;50.17;;
71423;SDS011;59240;51.370;-0.486;2023-05-18T08:39:54;48.90;;;45.03;;
71423;SDS011;59240;51.370;-0.486;2023-05-18T08:42:21;79.00;;;72.10;;
71423;SDS011;59240;51.370;-0.486;2023-05-18T08:45:11;45.20;;;39.17;;
71423;SDS011;59240;51.370;-0.486;2023-05-18T08:47:42;58.45;;;45.63;;
71423;SDS011;59240;51.370;-0.486;2023-05-18T08:50:09;243.68;;;223.45;;
71423;SDS011;59240;51.370;-0.486;2023-05-18T08:52:41;95.90;;;83.95;;
71423;SDS011;59240;51.370;-0.486;2023-05-18T08:55:12;25.05;;;17.60;;
71423;SDS011;59240;51.370;-0.486;2023-05-18T08:57:41;48.80;;;23.77;;
71423;SDS011;59240;51.370;-0.486;2023-05-18T09:00:09;24.23;;;11.23;;
71423;SDS011;59240;51.370;-0.486;2023-05-18T09:02:37;42.00;;;27.38;;
71423;SDS011;59240;51.370;-0.486;2023-05-18T09:05:05;18.17;;;10.82;;
71423;SDS011;59240;51.370;-0.486;2023-05-18T09:07:32;20.77;;;10.90;;
71423;SDS011;59240;51.370;-0.486;2023-05-18T09:09:59;39.17;;;35.57;;
71423;SDS011;59240;51.370;-0.486;2023-05-18T09:12:27;24.63;;;18.70;;
71423;SDS011;59240;51.370;-0.486;2023-05-18T09:14:55;28.90;;;26.05;;
71423;SDS011;59240;51.370;-0.486;2023-05-18T09:17:23;17.70;;;14.32;;
71423;SDS011;59240;51.370;-0.486;2023-05-18T09:19:50;118.00;;;108.10;;
71423;SDS011;59240;51.370;-0.486;2023-05-18T09:22:18;19.30;;;15.23;;
71423;SDS011;59240;51.370;-0.486;2023-05-18T09:24:46;9.32;;;5.78;;
71423;SDS011;59240;51.370;-0.486;2023-05-18T09:27:15;27.33;;;20.95;;
71423;SDS011;59240;51.370;-0.486;2023-05-18T09:29:51;21.52;;;12.95;;
71423;SDS011;59240;51.370;-0.486;2023-05-18T09:32:20;45.80;;;13.73;;
71423;SDS011;59240;51.370;-0.486;2023-05-18T09:34:47;22.17;;;13.23;;
71423;SDS011;59240;51.370;-0.486;2023-05-18T09:37:15;11.10;;;6.03;;
71423;SDS011;59240;51.370;-0.486;2023-05-18T09:39:42;15.45;;;9.75;;
71423;SDS011;59240;51.370;-0.486;2023-05-18T09:42:10;23.67;;;14.07;;
71423;SDS011;59240;51.370;-0.486;2023-05-18T09:44:37;9.70;;;6.65;;
71423;SDS011;59240;51.370;-0.486;2023-05-18T09:47:07;18.73;;;13.73;;
71423;SDS011;59240;51.370;-0.486;2023-05-18T09:49:35;39.63;;;14.95;;
71423;SDS011;59240;51.370;-0.486;2023-05-18T09:52:06;20.08;;;12.50;;
71423;SDS011;59240;51.370;-0.486;2023-05-18T09:54:34;48.00;;;15.70;;
71423;SDS011;59240;51.370;-0.486;2023-05-18T09:57:02;23.83;;;10.90;;
71423;SDS011;59240;51.370;-0.486;2023-05-18T09:59:34;19.77;;;9.10;;
71423;SDS011;59240;51.370;-0.486;2023-05-18T10:02:03;51.25;;;46.22;;
71423;SDS011;59240;51.370;-0.486;2023-05-18T10:09:38;30.67;;;25.92;;
71423;SDS011;59240;51.370;-0.486;2023-05-18T10:12:13;27.20;;;13.43;;
71423;SDS011;59240;51.370;-0.486;2023-05-18T10:14:42;23.98;;;14.23;;
71423;SDS011;59240;51.370;-0.486;2023-05-18T10:17:10;15.73;;;12.32;;
71423;SDS011;59240;51.370;-0.486;2023-05-18T10:19:41;12.52;;;8.05;;
71423;SDS011;59240;51.370;-0.486;2023-05-18T10:22:10;29.70;;;26.77;;
71423;SDS011;59240;51.370;-0.486;2023-05-18T10:24:38;12.87;;;10.50;;
71423;SDS011;59240;51.370;-0.486;2023-05-18T10:27:10;20.65;;;12.98;;
71423;SDS011;59240;51.370;-0.486;2023-05-18T10:29:42;14.55;;;10.65;;
71423;SDS011;59240;51.370;-0.486;2023-05-18T10:32:11;10.30;;;8.52;;
71423;SDS011;59240;51.370;-0.486;2023-05-18T10:34:38;18.10;;;10.82;;
71423;SDS011;59240;51.370;-0.486;2023-05-18T10:37:07;11.93;;;5.33;;
71423;SDS011;59240;51.370;-0.486;2023-05-18T10:39:37;18.80;;;10.38;;
71423;SDS011;59240;51.370;-0.486;2023-05-18T10:42:07;11.85;;;10.38;;
71423;SDS011;59240;51.370;-0.486;2023-05-18T10:44:35;18.25;;;8.93;;
71423;SDS011;59240;51.370;-0.486;2023-05-18T10:47:06;19.27;;;8.82;;
71423;SDS011;59240;51.370;-0.486;2023-05-18T10:49:33;23.57;;;12.17;;
71423;SDS011;59240;51.370;-0.486;2023-05-18T10:52:01;11.60;;;9.75;;
71423;SDS011;59240;51.370;-0.486;2023-05-18T10:54:29;29.15;;;20.73;;
71423;SDS011;59240;51.370;-0.486;2023-05-18T10:56:55;8.88;;;7.03;;
71423;SDS011;59240;51.370;-0.486;2023-05-18T10:59:22;22.15;;;10.90;;
71423;SDS011;59240;51.370;-0.486;2023-05-18T11:01:50;26.80;;;18.20;;
71423;SDS011;59240;51.370;-0.486;2023-05-18T11:04:23;40.33;;;18.88;;
71423;SDS011;59240;51.370;-0.486;2023-05-18T11:06:53;26.27;;;14.73;;
71423;SDS011;59240;51.370;-0.486;2023-05-18T11:09:24;10.77;;;4.50;;
71423;SDS011;59240;51.370;-0.486;2023-05-18T11:11:52;22.75;;;9.27;;
71423;SDS011;59240;51.370;-0.486;2023-05-18T11:14:25;21.70;;;8.03;;
71423;SDS011;59240;51.370;-0.486;2023-05-18T11:16:55;11.30;;;7.47;;
71423;SDS011;59240;51.370;-0.486;2023-05-18T11:27:50;14.97;;;10.13;;
71423;SDS011;59240;51.370;-0.486;2023-05-18T11:41:28;15.23;;;9.03;;
71423;SDS011;59240;51.370;-0.486;2023-05-18T11:43:58;19.25;;;16.73;;
71423;SDS011;59240;51.370;-0.486;2023-05-18T11:46:32;13.18;;;8.30;;
71423;SDS011;59240;51.370;-0.486;2023-05-18T11:49:02;9.65;;;7.25;;
71423;SDS011;59240;51.370;-0.486;2023-05-18T11:51:32;44.17;;;10.40;;
71423;SDS011;59240;51.370;-0.486;2023-05-18T11:53:59;13.40;;;12.03;;
71423;SDS011;59240;51.370;-0.486;2023-05-18T11:56:30;24.30;;;9.27;;
71423;SDS011;59240;51.370;-0.486;2023-05-18T11:59:11;14.20;;;9.88;;
71423;SDS011;59240;51.370;-0.486;2023-05-18T12:01:40;16.33;;;8.88;;
71423;SDS011;59240;51.370;-0.486;2023-05-18T12:04:07;11.35;;;9.70;;
71423;SDS011;59240;51.370;-0.486;2023-05-18T12:06:35;14.07;;;6.43;;
71423;SDS011;59240;51.370;-0.486;2023-05-18T12:09:03;24.50;;;15.13;;
71423;SDS011;59240;51.370;-0.486;2023-05-18T12:11:31;13.02;;;11.68;;
71423;SDS011;59240;51.370;-0.486;2023-05-18T12:13:58;15.02;;;7.68;;
71423;SDS011;59240;51.370;-0.486;2023-05-18T12:16:26;10.73;;;4.63;;
71423;SDS011;59240;51.370;-0.486;2023-05-18T12:18:55;30.17;;;15.87;;
71423;SDS011;59240;51.370;-0.486;2023-05-18T12:21:22;9.48;;;6.22;;
71423;SDS011;59240;51.370;-0.486;2023-05-18T12:24:01;13.63;;;10.32;;
71423;SDS011;59240;51.370;-0.486;2023-05-18T12:26:28;19.02;;;9.38;;
71423;SDS011;59240;51.370;-0.486;2023-05-18T12:29:00;12.13;;;3.80;;
71423;SDS011;59240;51.370;-0.486;2023-05-18T12:31:27;13.07;;;7.33;;
71423;SDS011;59240;51.370;-0.486;2023-05-18T12:33:55;30.95;;;14.02;;
71423;SDS011;59240;51.370;-0.486;2023-05-18T12:36:24;21.50;;;11.73;;
71423;SDS011;59240;51.370;-0.486;2023-05-18T12:38:52;15.20;;;6.85;;
71423;SDS011;59240;51.370;-0.486;2023-05-18T12:41:25;24.35;;;10.52;;
71423;SDS011;59240;51.370;-0.486;2023-05-18T12:43:52;20.40;;;6.80;;
71423;SDS011;59240;51.370;-0.486;2023-05-18T12:46:23;17.08;;;9.95;;
71423;SDS011;59240;51.370;-0.486;2023-05-18T12:48:57;18.08;;;9.07;;
71423;SDS011;59240;51.370;-0.486;2023-05-18T12:51:33;17.90;;;9.73;;
71423;SDS011;59240;51.370;-0.486;2023-05-18T12:54:01;22.00;;;10.98;;
71423;SDS011;59240;51.370;-0.486;2023-05-18T12:59:27;20.27;;;12.95;;
71423;SDS011;59240;51.370;-0.486;2023-05-18T13:01:54;11.02;;;7.05;;
71423;SDS011;59240;51.370;-0.486;2023-05-18T13:04:22;22.55;;;9.85;;
71423;SDS011;59240;51.370;-0.486;2023-05-18T13:06:49;37.70;;;33.70;;
71423;SDS011;59240;51.370;-0.486;2023-05-18T13:09:15;13.30;;;7.63;;
71423;SDS011;59240;51.370;-0.486;2023-05-18T13:11:49;79.93;;;60.95;;
71423;SDS011;59240;51.370;-0.486;2023-05-18T13:14:36;12.40;;;10.77;;
71423;SDS011;59240;51.370;-0.486;2023-05-18T13:17:03;17.40;;;7.65;;
71423;SDS011;59240;51.370;-0.486;2023-05-18T13:19:34;21.30;;;12.50;;
71423;SDS011;59240;51.370;-0.486;2023-05-18T13:22:02;26.67;;;9.90;;
71423;SDS011;59240;51.370;-0.486;2023-05-18T13:24:29;10.60;;;5.68;;
71423;SDS011;59240;51.370;-0.486;2023-05-18T13:27:00;12.32;;;8.50;;
71423;SDS011;59240;51.370;-0.486;2023-05-18T13:29:28;12.13;;;6.97;;
71423;SDS011;59240;51.370;-0.486;2023-05-18T13:31:54;10.52;;;7.68;;
71423;SDS011;59240;51.370;-0.486;2023-05-18T13:34:21;27.57;;;15.83;;
71423;SDS011;59240;51.370;-0.486;2023-05-18T13:36:48;53.28;;;42.65;;
71423;SDS011;59240;51.370;-0.486;2023-05-18T13:39:14;54.85;;;11.70;;
71423;SDS011;59240;51.370;-0.486;2023-05-18T13:41:42;17.20;;;5.55;;
71423;SDS011;59240;51.370;-0.486;2023-05-18T13:44:09;11.77;;;5.70;;
71423;SDS011;59240;51.370;-0.486;2023-05-18T13:46:54;21.33;;;11.00;;
71423;SDS011;59240;51.370;-0.486;2023-05-18T13:49:21;50.83;;;35.55;;
71423;SDS011;59240;51.370;-0.486;2023-05-18T13:51:48;11.63;;;5.03;;
71423;SDS011;59240;51.370;-0.486;2023-05-18T13:54:14;11.32;;;9.65;;
71423;SDS011;59240;51.370;-0.486;2023-05-18T13:56:41;13.75;;;10.18;;
71423;SDS011;59240;51.370;-0.486;2023-05-18T13:59:08;33.03;;;12.50;;
71423;SDS011;59240;51.370;-0.486;2023-05-18T14:01:35;28.50;;;9.32;;
71423;SDS011;59240;51.370;-0.486;2023-05-18T14:04:01;13.52;;;9.23;;
71423;SDS011;59240;51.370;-0.486;2023-05-18T14:06:28;16.02;;;8.77;;
71423;SDS011;59240;51.370;-0.486;2023-05-18T14:08:55;11.05;;;7.72;;
71423;SDS011;59240;51.370;-0.486;2023-05-18T14:11:21;7.93;;;5.23;;
71423;SDS011;59240;51.370;-0.486;2023-05-18T14:13:48;12.25;;;8.43;;
71423;SDS011;59240;51.370;-0.486;2023-05-18T14:16:15;34.67;;;15.32;;
71423;SDS011;59240;51.370;-0.486;2023-05-18T14:18:42;17.73;;;9.77;;
71423;SDS011;59240;51.370;-0.486;2023-05-18T14:21:09;12.45;;;9.82;;
71423;SDS011;59240;51.370;-0.486;2023-05-18T14:23:35;23.80;;;8.50;;
71423;SDS011;59240;51.370;-0.486;2023-05-18T14:26:02;10.65;;;4.43;;
71423;SDS011;59240;51.370;-0.486;2023-05-18T14:28:29;12.98;;;8.27;;
71423;SDS011;59240;51.370;-0.486;2023-05-18T14:30:56;19.20;;;13.70;;
71423;SDS011;59240;51.370;-0.486;2023-05-18T14:33:22;19.92;;;16.20;;
71423;SDS011;59240;51.370;-0.486;2023-05-18T14:35:49;10.67;;;4.97;;
71423;SDS011;59240;51.370;-0.486;2023-05-18T14:38:16;24.30;;;14.88;;
71423;SDS011;59240;51.370;-0.486;2023-05-18T14:40:43;11.68;;;5.35;;
71423;SDS011;59240;51.370;-0.486;2023-05-18T14:43:09;20.88;;;11.63;;
71423;SDS011;59240;51.370;-0.486;2023-05-18T14:45:36;12.43;;;7.53;;
71423;SDS011;59240;51.370;-0.486;2023-05-18T14:48:03;10.90;;;4.70;;
71423;SDS011;59240;51.370;-0.486;2023-05-18T14:50:30;41.58;;;13.38;;
71423;SDS011;59240;51.370;-0.486;2023-05-18T14:52:58;10.05;;;5.65;;
71423;SDS011;59240;51.370;-0.486;2023-05-18T14:55:25;21.70;;;6.47;;
71423;SDS011;59240;51.370;-0.486;2023-05-18T14:57:52;9.15;;;5.07;;